createdAt,value
2019-04-26T00:00:37.967Z,99.90
2019-04-26T00:03:09.363Z,99.90
2019-04-26T00:05:39.253Z,99.90
2019-04-26T00:08:09.235Z,99.90
2019-04-26T00:10:40.840Z,99.90
2019-04-26T00:13:12.395Z,99.90
2019-04-26T00:15:42.955Z,99.90
2019-04-26T00:18:13.426Z,99.90
2019-04-26T00:20:41.891Z,99.90
2019-04-26T00:23:10.783Z,99.90
2019-04-26T00:25:39.774Z,99.90
2019-04-26T00:28:08.503Z,99.90
2019-04-26T00:30:36.975Z,99.90
2019-04-26T00:33:05.425Z,99.90
2019-04-26T00:35:46.563Z,99.90
2019-04-26T00:38:04.390Z,99.90
2019-04-26T00:40:33.130Z,99.90
2019-04-26T00:43:03.491Z,99.90
2019-04-26T00:45:34.630Z,99.90
2019-04-26T00:48:04.183Z,99.90
2019-04-26T00:50:34.483Z,99.90
2019-04-26T00:53:04.038Z,99.90
2019-04-26T00:55:35.351Z,99.90
2019-04-26T00:58:05.787Z,99.90
2019-04-26T01:00:34.684Z,99.90
2019-04-26T01:03:03.474Z,99.90
2019-04-26T01:05:33.855Z,99.90
2019-04-26T01:08:02.591Z,99.90
2019-04-26T01:10:31.315Z,99.90
2019-04-26T01:12:59.759Z,99.90
2019-04-26T01:15:28.232Z,99.90
2019-04-26T01:17:56.682Z,99.90
2019-04-26T01:20:27.663Z,99.90
2019-04-26T01:22:59.551Z,99.90
2019-04-26T01:25:33.663Z,99.90
2019-04-26T01:28:05.735Z,99.90
2019-04-26T01:30:36.811Z,99.90
2019-04-26T01:33:06.803Z,99.90
2019-04-26T01:35:35.795Z,99.90
2019-04-26T01:38:08.271Z,99.90
2019-04-26T01:40:37.809Z,99.90
2019-04-26T01:43:08.054Z,99.90
2019-04-26T01:45:44.173Z,99.90
2019-04-26T01:48:46.019Z,99.90
2019-04-26T01:51:21.758Z,99.90
2019-04-26T01:53:52.135Z,99.90
2019-04-26T01:56:23.755Z,99.90
2019-04-26T01:58:52.279Z,99.90
2019-04-26T02:01:34.386Z,99.90
2019-04-26T02:04:03.131Z,99.90
2019-04-26T02:06:35.178Z,99.90
2019-04-26T02:09:04.803Z,99.90
2019-04-26T02:11:33.704Z,99.90
2019-04-26T02:14:02.499Z,99.90
2019-04-26T02:16:31.238Z,99.90
2019-04-26T02:18:59.807Z,99.90
2019-04-26T02:21:39.184Z,99.90
2019-04-26T02:24:09.635Z,99.90
2019-04-26T02:26:42.291Z,99.90
2019-04-26T02:29:13.815Z,99.90
2019-04-26T02:31:45.123Z,99.90
2019-04-26T02:34:15.436Z,99.90
2019-04-26T02:36:57.248Z,99.90
2019-04-26T02:39:20.752Z,99.90
2019-04-26T02:41:52.385Z,99.90
2019-04-26T02:44:26.645Z,99.90
2019-04-26T02:47:20.764Z,99.90
2019-04-26T02:49:53.747Z,99.90
2019-04-26T02:52:49.357Z,99.90
2019-04-26T02:55:42.398Z,99.90
2019-04-26T02:58:11.155Z,99.90
2019-04-26T03:00:40.142Z,99.90
2019-04-26T03:03:09.952Z,99.90
2019-04-26T03:05:43.305Z,99.90
2019-04-26T03:08:15.081Z,99.90
2019-04-26T03:10:46.930Z,99.90
2019-04-26T03:13:19.604Z,99.90
2019-04-26T03:16:02.507Z,99.90
2019-04-26T03:18:52.163Z,99.90
2019-04-26T03:21:47.554Z,99.90
2019-04-26T03:24:17.117Z,99.90
2019-04-26T03:27:06.982Z,99.90
2019-04-26T03:30:16.302Z,99.90
2019-04-26T03:32:58.887Z,99.90
2019-04-26T03:35:55.949Z,99.90
2019-04-26T03:38:22.481Z,99.90
2019-04-26T03:40:58.471Z,99.90
2019-04-26T03:43:48.070Z,99.90
2019-04-26T03:46:31.017Z,99.90
2019-04-26T03:49:37.410Z,99.90
2019-04-26T03:52:31.774Z,99.90
2019-04-26T03:55:03.576Z,99.90
2019-04-26T03:57:54.316Z,99.90
2019-04-26T04:00:32.983Z,99.90
2019-04-26T04:03:09.389Z,99.90
2019-04-26T04:05:44.182Z,99.90
2019-04-26T04:08:15.908Z,99.90
2019-04-26T04:10:53.213Z,99.90
2019-04-26T04:13:38.968Z,99.90
2019-04-26T04:16:36.790Z,99.90
2019-04-26T04:19:15.312Z,99.90
2019-04-26T04:21:57.187Z,99.90
2019-04-26T04:24:28.741Z,99.90
2019-04-26T04:27:05.928Z,99.90
2019-04-26T04:29:49.010Z,99.90
2019-04-26T04:32:40.454Z,99.90
2019-04-26T04:35:11.706Z,99.90
2019-04-26T04:38:08.632Z,99.90
2019-04-26T04:41:12.431Z,99.90
2019-04-26T04:43:57.915Z,99.90
2019-04-26T04:46:47.452Z,99.90
2019-04-26T04:49:29.395Z,99.90
2019-04-26T04:52:13.216Z,99.90
2019-04-26T04:55:03.267Z,99.90
2019-04-26T04:57:29.979Z,99.90
2019-04-26T05:00:06.176Z,99.90
2019-04-26T05:02:46.586Z,99.90
2019-04-26T05:05:51.578Z,99.90
2019-04-26T05:08:37.396Z,99.90
2019-04-26T05:11:09.219Z,99.90
2019-04-26T05:13:47.839Z,99.90
2019-04-26T05:16:48.765Z,99.90
2019-04-26T05:19:38.739Z,99.90
2019-04-26T05:22:26.879Z,99.90
2019-04-26T05:25:14.674Z,99.90
2019-04-26T05:27:57.227Z,99.90
2019-04-26T05:30:36.428Z,99.90
2019-04-26T05:33:16.895Z,99.90
2019-04-26T05:36:09.431Z,99.90
2019-04-26T05:38:40.972Z,99.90
2019-04-26T05:41:36.643Z,99.90
2019-04-26T05:44:33.836Z,99.90
2019-04-26T05:47:28.168Z,99.90
2019-04-26T05:50:33.637Z,99.90
2019-04-26T05:53:09.664Z,99.90
2019-04-26T05:56:08.364Z,99.90
2019-04-26T05:58:45.970Z,99.90
2019-04-26T06:01:49.150Z,99.90
2019-04-26T06:04:25.484Z,99.90
2019-04-26T06:07:01.382Z,99.90
2019-04-26T06:09:54.615Z,99.90
2019-04-26T06:12:42.895Z,99.90
2019-04-26T06:15:25.092Z,99.90
2019-04-26T06:18:01.813Z,99.90
2019-04-26T06:20:42.797Z,98.30
2019-04-26T06:23:14.420Z,96.50
2019-04-26T06:25:55.630Z,99.80
2019-04-26T06:28:43.554Z,98.60
2019-04-26T06:31:15.093Z,99.90
2019-04-26T06:34:09.235Z,92.40
2019-04-26T06:36:42.403Z,74.60
2019-04-26T06:39:20.899Z,64.90
2019-04-26T06:42:18.015Z,59.00
2019-04-26T06:45:14.823Z,52.00
2019-04-26T06:47:59.576Z,59.20
2019-04-26T06:50:44.683Z,61.70
2019-04-26T06:53:22.253Z,67.50
2019-04-26T06:56:09.957Z,58.10
2019-04-26T06:59:03.457Z,58.60
2019-04-26T07:01:38.390Z,60.50
2019-04-26T07:04:13.463Z,70.10
2019-04-26T07:06:56.292Z,77.10
2019-04-26T07:09:30.483Z,82.90
2019-04-26T07:12:36.855Z,76.90
2019-04-26T07:15:39.056Z,77.20
2019-04-26T07:18:34.866Z,74.30
2019-04-26T07:21:23.408Z,69.40
2019-04-26T07:24:16.559Z,72.60
2019-04-26T07:27:18.372Z,77.80
2019-04-26T07:30:12.139Z,79.60
2019-04-26T07:33:13.548Z,74.00
2019-04-26T07:36:15.298Z,78.30
2019-04-26T07:39:19.701Z,81.10
2019-04-26T07:42:16.014Z,75.10
2019-04-26T07:45:14.699Z,71.70
2019-04-26T07:47:56.843Z,73.20
2019-04-26T07:50:40.793Z,59.60
2019-04-26T07:53:30.188Z,56.60
2019-04-26T07:56:28.934Z,63.50
2019-04-26T07:59:23.271Z,73.00
2019-04-26T08:02:17.367Z,62.40
2019-04-26T08:05:05.888Z,63.40
2019-04-26T08:07:40.463Z,66.20
2019-04-26T08:10:15.034Z,70.70
2019-04-26T08:12:46.582Z,58.80
2019-04-26T08:15:34.948Z,63.00
2019-04-26T08:18:11.047Z,53.60
2019-04-26T08:20:44.217Z,55.20
2019-04-26T08:23:37.517Z,55.40
2019-04-26T08:25:49.360Z,56.00
2019-04-26T08:28:21.743Z,57.00
2019-04-26T08:30:54.403Z,54.30
2019-04-26T08:33:27.723Z,54.90
2019-04-26T08:35:58.811Z,59.10
2019-04-26T08:38:29.771Z,62.80
2019-04-26T08:41:00.467Z,60.00
2019-04-26T08:43:38.847Z,61.20
2019-04-26T08:46:26.679Z,66.80
2019-04-26T08:49:06.130Z,58.20
2019-04-26T08:51:35.035Z,67.40
2019-04-26T08:54:07.466Z,58.40
2019-04-26T08:56:40.067Z,62.80
2019-04-26T08:59:17.487Z,59.50
2019-04-26T09:01:50.439Z,59.40
2019-04-26T09:04:35.667Z,55.60
2019-04-26T09:07:09.403Z,57.30
2019-04-26T09:09:40.954Z,55.30
2019-04-26T09:12:22.465Z,51.50
2019-04-26T09:14:47.324Z,58.10
2019-04-26T09:17:15.851Z,57.40
2019-04-26T09:19:44.639Z,53.60
2019-04-26T09:22:14.727Z,58.10
2019-04-26T09:24:55.126Z,59.40
2019-04-26T09:27:26.423Z,59.70
2019-04-26T09:29:56.618Z,60.00
2019-04-26T09:32:28.036Z,57.30
2019-04-26T09:34:58.641Z,55.90
2019-04-26T09:37:30.697Z,59.50
2019-04-26T09:40:09.570Z,59.80
2019-04-26T09:42:46.631Z,58.30
2019-04-26T09:45:17.207Z,58.40
2019-04-26T09:47:47.362Z,62.10
2019-04-26T09:50:34.111Z,60.70
2019-04-26T09:53:02.567Z,66.00
2019-04-26T09:55:35.414Z,60.60
2019-04-26T09:58:01.211Z,59.90
2019-04-26T10:00:31.339Z,59.40
2019-04-26T10:02:59.859Z,62.30
2019-04-26T10:05:28.331Z,63.50
2019-04-26T10:07:56.855Z,61.10
2019-04-26T10:10:27.035Z,59.70
2019-04-26T10:12:57.131Z,60.10
2019-04-26T10:15:29.979Z,57.60
2019-04-26T10:17:59.270Z,55.90
2019-04-26T10:20:27.747Z,56.80
2019-04-26T10:22:56.616Z,57.10
2019-04-26T10:25:25.166Z,58.20
2019-04-26T10:27:53.994Z,55.00
2019-04-26T10:30:22.783Z,60.20
2019-04-26T10:32:51.575Z,50.60
2019-04-26T10:35:21.685Z,52.50
2019-04-26T10:37:52.595Z,60.20
2019-04-26T10:40:20.686Z,57.20
2019-04-26T10:42:49.215Z,51.50
2019-04-26T10:45:18.713Z,49.00
2019-04-26T10:47:47.251Z,49.80
2019-04-26T10:50:16.196Z,52.50
2019-04-26T10:52:55.757Z,54.70
2019-04-26T10:55:26.030Z,57.60
2019-04-26T10:58:01.619Z,48.90
2019-04-26T11:00:34.435Z,50.20
2019-04-26T11:03:04.612Z,52.30
2019-04-26T11:05:33.829Z,57.90
2019-04-26T11:08:02.371Z,57.60
2019-04-26T11:10:31.900Z,56.10
2019-04-26T11:13:00.814Z,59.20
2019-04-26T11:15:32.522Z,66.10
2019-04-26T11:17:59.462Z,62.50
2019-04-26T11:20:27.917Z,63.80
2019-04-26T11:22:56.386Z,75.30
2019-04-26T11:25:28.237Z,61.70
2019-04-26T11:27:55.727Z,65.30
2019-04-26T11:30:24.246Z,65.30
2019-04-26T11:32:52.999Z,71.00
2019-04-26T11:35:21.451Z,70.60
2019-04-26T11:37:50.558Z,68.50
2019-04-26T11:40:20.347Z,74.60
2019-04-26T11:42:48.829Z,72.60
2019-04-26T11:45:18.002Z,76.40
2019-04-26T11:47:55.782Z,78.50
2019-04-26T11:50:17.826Z,75.70
2019-04-26T11:52:46.830Z,74.00
2019-04-26T11:55:15.818Z,81.30
2019-04-26T11:57:47.520Z,79.40
2019-04-26T12:00:16.336Z,80.70
2019-04-26T12:02:46.383Z,79.40
2019-04-26T12:05:32.483Z,79.90
2019-04-26T12:08:11.510Z,80.60
2019-04-26T12:10:40.414Z,80.30
2019-04-26T12:13:10.205Z,81.90
2019-04-26T12:15:39.156Z,84.50
2019-04-26T12:18:09.889Z,84.30
2019-04-26T12:20:39.363Z,84.50
2019-04-26T12:23:08.155Z,85.10
2019-04-26T12:25:38.897Z,81.30
2019-04-26T12:28:07.599Z,81.70
2019-04-26T12:30:36.298Z,82.80
2019-04-26T12:33:05.169Z,83.10
2019-04-26T12:35:33.964Z,83.60
2019-04-26T12:38:02.863Z,84.30
2019-04-26T12:40:31.314Z,86.00
2019-04-26T12:42:59.771Z,84.90
2019-04-26T12:45:33.127Z,87.40
2019-04-26T12:48:03.555Z,88.60
2019-04-26T12:50:36.411Z,88.60
2019-04-26T12:53:02.884Z,87.20
2019-04-26T12:55:31.691Z,85.70
2019-04-26T12:58:00.476Z,90.60
2019-04-26T13:00:32.940Z,91.20
2019-04-26T13:03:02.355Z,88.90
2019-04-26T13:05:30.826Z,87.80
2019-04-26T13:07:59.631Z,86.10
2019-04-26T13:10:48.147Z,86.20
2019-04-26T13:13:24.356Z,90.70
2019-04-26T13:16:10.707Z,90.10
2019-04-26T13:18:41.293Z,90.10
2019-04-26T13:21:09.718Z,90.20
2019-04-26T13:23:38.538Z,91.30
2019-04-26T13:26:06.991Z,90.80
2019-04-26T13:28:35.448Z,92.20
2019-04-26T13:31:04.208Z,92.40
2019-04-26T13:33:32.995Z,92.70
2019-04-26T13:36:03.282Z,92.40
2019-04-26T13:38:31.724Z,91.00
2019-04-26T13:41:04.796Z,92.70
2019-04-26T13:43:31.135Z,91.80
2019-04-26T13:46:13.949Z,94.70
2019-04-26T13:48:50.047Z,93.90
2019-04-26T13:51:22.911Z,95.30
2019-04-26T13:53:54.259Z,96.80
2019-04-26T13:56:22.323Z,99.10
2019-04-26T13:58:54.357Z,98.50
2019-04-26T14:01:21.340Z,99.10
2019-04-26T14:03:50.128Z,96.40
2019-04-26T14:06:18.921Z,96.10
2019-04-26T14:08:47.375Z,96.50
2019-04-26T14:11:15.857Z,96.20
2019-04-26T14:13:44.306Z,96.30
2019-04-26T14:16:12.779Z,96.90
2019-04-26T14:18:41.867Z,95.70
2019-04-26T14:21:10.411Z,95.30
2019-04-26T14:23:40.785Z,95.40
2019-04-26T14:26:10.899Z,96.10
2019-04-26T14:28:42.037Z,95.90
2019-04-26T14:31:12.226Z,96.50
2019-04-26T14:33:40.521Z,96.00
2019-04-26T14:36:17.697Z,95.60
2019-04-26T14:38:41.281Z,96.50
2019-04-26T14:41:13.138Z,95.40
2019-04-26T14:43:41.566Z,95.40
2019-04-26T14:46:14.050Z,96.60
2019-04-26T14:48:44.408Z,96.20
2019-04-26T14:51:12.434Z,96.20
2019-04-26T14:53:41.135Z,95.60
2019-04-26T14:56:09.923Z,96.30
2019-04-26T14:58:38.383Z,97.00
2019-04-26T15:01:28.477Z,96.30
2019-04-26T15:04:15.199Z,96.00
2019-04-26T15:06:45.311Z,96.70
2019-04-26T15:09:19.766Z,96.90
2019-04-26T15:11:53.322Z,97.10
2019-04-26T15:14:19.342Z,96.90
2019-04-26T15:16:46.074Z,96.40
2019-04-26T15:19:14.732Z,97.10
2019-04-26T15:21:43.504Z,97.30
2019-04-26T15:24:12.827Z,97.60
2019-04-26T15:26:41.807Z,98.10
2019-04-26T15:29:12.587Z,97.30
2019-04-26T15:31:41.127Z,97.60
2019-04-26T15:34:09.919Z,97.50
2019-04-26T15:36:38.388Z,97.80
2019-04-26T15:39:13.642Z,97.50
2019-04-26T15:41:47.018Z,97.60
2019-04-26T15:44:33.446Z,97.90
2019-04-26T15:47:19.603Z,98.30
2019-04-26T15:49:52.989Z,99.10
2019-04-26T15:52:21.473Z,99.90
2019-04-26T15:54:52.870Z,99.90
2019-04-26T15:57:24.423Z,99.90
2019-04-26T15:59:54.361Z,99.90
2019-04-26T16:02:23.051Z,99.90
2019-04-26T16:04:54.311Z,99.90
2019-04-26T16:07:27.801Z,99.90
2019-04-26T16:09:55.975Z,99.90
2019-04-26T16:12:25.789Z,99.90
2019-04-26T16:14:52.831Z,99.90
2019-04-26T16:17:21.625Z,99.90
2019-04-26T16:19:50.147Z,99.90
2019-04-26T16:22:18.690Z,99.90
2019-04-26T16:24:47.181Z,99.90
2019-04-26T16:27:15.755Z,99.90
2019-04-26T16:30:02.980Z,99.90
2019-04-26T16:32:43.239Z,99.90
2019-04-26T16:35:11.807Z,99.90
2019-04-26T16:37:43.648Z,99.90
2019-04-26T16:40:13.883Z,99.90
2019-04-26T16:42:42.635Z,99.90
2019-04-26T16:45:12.350Z,99.90
2019-04-26T16:47:45.212Z,99.90
2019-04-26T16:50:14.917Z,99.90
2019-04-26T16:55:17.666Z,99.90
2019-04-26T16:57:54.916Z,99.90
2019-04-26T17:00:16.324Z,99.90
2019-04-26T17:02:44.041Z,99.90
2019-04-26T17:05:20.875Z,99.90
2019-04-26T17:07:45.919Z,99.90
2019-04-26T17:09:38.413Z,99.90
2019-04-26T17:10:16.508Z,99.90
2019-04-26T17:12:46.310Z,99.90
2019-04-26T17:15:17.561Z,99.90
2019-04-26T17:17:50.170Z,99.90
2019-04-26T17:20:15.986Z,99.90
2019-04-26T17:22:59.486Z,99.90
2019-04-26T17:25:33.120Z,99.90
2019-04-26T17:28:22.953Z,99.90
2019-04-26T17:30:53.054Z,99.90
2019-04-26T17:33:22.680Z,99.90
2019-04-26T17:35:52.087Z,99.90
2019-04-26T17:38:22.419Z,99.90
2019-04-26T17:40:51.363Z,99.90
2019-04-26T17:43:21.209Z,99.90
2019-04-26T17:45:51.527Z,99.90
2019-04-26T17:48:21.188Z,99.90
2019-04-26T17:50:50.215Z,99.90
2019-04-26T17:53:28.682Z,99.90
2019-04-26T17:55:53.003Z,99.90
2019-04-26T17:58:27.480Z,99.90
2019-04-26T18:00:49.278Z,99.90
2019-04-26T18:03:18.253Z,99.90
2019-04-26T18:05:56.693Z,99.90
2019-04-26T18:08:33.687Z,99.90
2019-04-26T18:10:47.570Z,99.90
2019-04-26T18:13:17.742Z,99.90
2019-04-26T18:15:48.492Z,99.90
2019-04-26T18:18:24.133Z,99.90
2019-04-26T18:21:13.003Z,99.90
2019-04-26T18:23:40.947Z,99.90
2019-04-26T18:26:09.739Z,99.90
2019-04-26T18:28:38.185Z,99.90
2019-04-26T18:31:08.664Z,99.90
2019-04-26T18:33:37.119Z,99.90
2019-04-26T18:36:05.940Z,99.90
2019-04-26T18:38:34.634Z,99.90
2019-04-26T18:41:03.788Z,99.90
2019-04-26T18:43:32.827Z,99.90
2019-04-26T18:46:06.471Z,99.90
2019-04-26T18:48:40.275Z,99.90
2019-04-26T18:51:07.464Z,99.90
2019-04-26T18:53:39.452Z,99.90
2019-04-26T18:56:07.739Z,99.90
2019-04-26T18:58:38.062Z,99.90
2019-04-26T19:01:07.455Z,99.90
2019-04-26T19:03:35.910Z,99.90
2019-04-26T19:06:05.794Z,99.90
2019-04-26T19:08:45.561Z,99.90
2019-04-26T19:11:07.720Z,99.90
2019-04-26T19:13:37.801Z,99.90
2019-04-26T19:16:10.550Z,99.90
2019-04-26T19:18:44.927Z,99.90
2019-04-26T19:21:17.883Z,99.90
2019-04-26T19:23:46.584Z,99.90
2019-04-26T19:26:15.194Z,99.90
2019-04-26T19:28:44.603Z,99.90
2019-04-26T19:31:13.199Z,99.90
2019-04-26T19:33:42.806Z,99.90
2019-04-26T19:36:12.353Z,99.90
2019-04-26T19:38:43.709Z,99.90
2019-04-26T19:41:12.211Z,99.90
2019-04-26T19:43:43.558Z,99.90
2019-04-26T19:46:23.394Z,99.90
2019-04-26T19:49:03.448Z,99.90
2019-04-26T19:51:52.057Z,99.90
2019-04-26T19:54:27.699Z,99.90
2019-04-26T19:56:56.642Z,99.90
2019-04-26T19:59:27.580Z,99.90
2019-04-26T20:01:57.601Z,99.90
2019-04-26T20:04:30.669Z,99.90
2019-04-26T20:06:55.501Z,99.90
2019-04-26T20:09:26.349Z,99.90
2019-04-26T20:11:58.073Z,99.90
2019-04-26T20:14:39.311Z,99.90
2019-04-26T20:16:56.003Z,99.90
2019-04-26T20:19:34.383Z,99.90
2019-04-26T20:21:54.919Z,99.90
2019-04-26T20:24:23.711Z,99.90
2019-04-26T20:26:52.363Z,99.90
2019-04-26T20:29:21.459Z,99.90
2019-04-26T20:31:53.472Z,99.90
2019-04-26T20:34:22.015Z,99.90
2019-04-26T20:36:52.176Z,99.90
2019-04-26T20:39:23.973Z,99.90
2019-04-26T20:42:00.996Z,99.90
2019-04-26T20:44:28.253Z,99.90
2019-04-26T20:46:52.110Z,99.90
2019-04-26T20:49:21.808Z,99.90
2019-04-26T20:51:51.917Z,99.90
2019-04-26T20:54:22.368Z,99.90
2019-04-26T20:56:55.366Z,99.90
2019-04-26T20:59:23.415Z,99.90
2019-04-26T21:02:03.016Z,99.90
2019-04-26T21:04:36.814Z,99.90
2019-04-26T21:06:53.550Z,99.90
2019-04-26T21:09:22.549Z,99.90
2019-04-26T21:11:51.746Z,99.90
2019-04-26T21:14:21.400Z,99.90
2019-04-26T21:16:50.594Z,99.90
2019-04-26T21:19:20.255Z,99.90
2019-04-26T21:21:50.422Z,99.90
2019-04-26T21:24:23.161Z,99.90
2019-04-26T21:27:09.579Z,99.90
2019-04-26T21:29:43.536Z,99.90
2019-04-26T21:32:20.576Z,99.90
2019-04-26T21:34:50.855Z,99.90
2019-04-26T21:37:29.843Z,99.90
2019-04-26T21:40:22.631Z,99.90
2019-04-26T21:42:46.902Z,99.90
2019-04-26T21:45:15.370Z,99.90
2019-04-26T21:47:44.239Z,99.90
2019-04-26T21:50:13.601Z,99.90
2019-04-26T21:52:43.323Z,99.90
2019-04-26T21:55:12.771Z,99.90
2019-04-26T21:57:41.567Z,99.90
2019-04-26T22:00:15.347Z,99.90
2019-04-26T22:02:44.359Z,99.90
2019-04-26T22:05:14.931Z,99.90
2019-04-26T22:07:44.667Z,99.90
2019-04-26T22:10:15.334Z,99.90
2019-04-26T22:12:45.084Z,99.90
2019-04-26T22:15:15.274Z,99.90
2019-04-26T22:17:52.938Z,99.90
2019-04-26T22:20:35.758Z,99.90
2019-04-26T22:23:21.432Z,99.90
2019-04-26T22:25:51.631Z,99.90
2019-04-26T22:28:20.391Z,99.90
2019-04-26T22:30:49.183Z,99.90
2019-04-26T22:33:17.723Z,99.90
2019-04-26T22:35:46.469Z,99.90
2019-04-26T22:38:17.522Z,99.90
2019-04-26T22:40:48.546Z,99.90
2019-04-26T22:43:20.314Z,99.90
2019-04-26T22:45:53.954Z,99.90
2019-04-26T22:48:30.315Z,99.90
2019-04-26T22:50:59.593Z,99.90
2019-04-26T22:53:28.480Z,99.90
2019-04-26T22:55:57.650Z,99.90
2019-04-26T22:58:28.840Z,99.90
2019-04-26T23:00:58.573Z,99.90
2019-04-26T23:03:27.955Z,99.90
2019-04-26T23:05:56.471Z,99.90
2019-04-26T23:08:25.427Z,99.90
2019-04-26T23:10:55.863Z,99.90
2019-04-26T23:13:28.818Z,99.90
2019-04-26T23:16:11.101Z,99.90
2019-04-26T23:18:46.326Z,99.90
2019-04-26T23:21:26.343Z,99.90
2019-04-26T23:23:54.811Z,99.90
2019-04-26T23:26:23.269Z,99.90
2019-04-26T23:28:53.544Z,99.90
2019-04-26T23:31:23.606Z,99.90
2019-04-26T23:33:53.760Z,99.90
2019-04-26T23:36:24.015Z,99.90
2019-04-26T23:38:53.199Z,99.90
2019-04-26T23:41:23.634Z,99.90
2019-04-26T23:43:56.524Z,99.90
2019-04-26T23:46:25.987Z,99.90
2019-04-26T23:48:53.852Z,99.90
2019-04-26T23:51:23.801Z,99.90
2019-04-26T23:53:56.637Z,99.90
2019-04-26T23:56:25.334Z,99.90
2019-04-26T23:58:53.245Z,99.90
